createdAt,value
2019-04-06T00:00:08.817Z,12.18
2019-04-06T00:02:40.009Z,12.19
2019-04-06T00:05:09.472Z,12.15
2019-04-06T00:07:38.886Z,12.16
2019-04-06T00:10:08.448Z,12.12
2019-04-06T00:12:38.063Z,12.10
2019-04-06T00:15:07.682Z,12.09
2019-04-06T00:17:37.202Z,12.05
2019-04-06T00:20:07.238Z,12.04
2019-04-06T00:22:36.873Z,12.02
2019-04-06T00:25:07.278Z,11.99
2019-04-06T00:27:36.707Z,11.91
2019-04-06T00:30:07.842Z,11.91
2019-04-06T00:32:41.908Z,11.86
2019-04-06T00:35:11.319Z,11.88
2019-04-06T00:37:40.738Z,11.84
2019-04-06T00:40:10.193Z,11.77
2019-04-06T00:42:39.615Z,11.74
2019-04-06T00:45:09.063Z,11.75
2019-04-06T00:47:38.489Z,11.69
2019-04-06T00:50:08.087Z,11.72
2019-04-06T00:52:37.519Z,11.65
2019-04-06T00:55:07.238Z,11.67
2019-04-06T00:57:36.659Z,11.68
2019-04-06T01:00:07.321Z,11.64
2019-04-06T01:02:36.704Z,11.64
2019-04-06T01:05:06.528Z,11.64
2019-04-06T01:07:36.281Z,11.59
2019-04-06T01:10:07.295Z,11.54
2019-04-06T01:12:36.883Z,11.47
2019-04-06T01:15:06.435Z,11.48
2019-04-06T01:17:36.178Z,11.44
2019-04-06T01:20:05.999Z,11.36
2019-04-06T01:22:35.427Z,11.35
2019-04-06T01:25:09.307Z,11.29
2019-04-06T01:27:39.215Z,11.29
2019-04-06T01:30:08.692Z,11.22
2019-04-06T01:32:38.161Z,11.16
2019-04-06T01:35:08.043Z,11.15
2019-04-06T01:37:37.466Z,11.12
2019-04-06T01:40:07.285Z,11.12
2019-04-06T01:42:36.707Z,11.07
2019-04-06T01:45:06.531Z,11.00
2019-04-06T01:47:36.178Z,10.95
2019-04-06T01:50:05.798Z,10.93
2019-04-06T01:52:35.222Z,10.92
2019-04-06T01:55:05.533Z,10.90
2019-04-06T01:57:34.959Z,10.92
2019-04-06T02:00:10.650Z,10.88
2019-04-06T02:02:44.130Z,10.89
2019-04-06T02:05:13.569Z,10.83
2019-04-06T02:07:42.996Z,10.86
2019-04-06T02:10:12.443Z,10.82
2019-04-06T02:12:41.973Z,10.75
2019-04-06T02:15:11.482Z,10.74
2019-04-06T02:17:40.930Z,10.67
2019-04-06T02:20:10.658Z,10.69
2019-04-06T02:22:40.215Z,10.65
2019-04-06T02:25:10.913Z,10.62
2019-04-06T02:27:40.366Z,10.57
2019-04-06T02:30:11.831Z,10.48
2019-04-06T02:33:00.770Z,10.49
2019-04-06T02:35:32.090Z,10.41
2019-04-06T02:38:05.936Z,10.38
2019-04-06T02:40:37.284Z,10.33
2019-04-06T02:43:08.373Z,10.24
2019-04-06T02:45:38.127Z,10.20
2019-04-06T02:48:07.622Z,10.17
2019-04-06T02:50:37.121Z,10.13
2019-04-06T02:53:07.229Z,10.09
2019-04-06T02:55:36.655Z,10.08
2019-04-06T02:58:06.223Z,10.01
2019-04-06T03:00:35.628Z,9.98
2019-04-06T03:03:05.565Z,9.95
2019-04-06T03:05:35.153Z,9.95
2019-04-06T03:08:04.821Z,9.95
2019-04-06T03:10:34.960Z,9.86
2019-04-06T03:13:04.514Z,9.85
2019-04-06T03:15:34.127Z,9.76
2019-04-06T03:18:04.262Z,9.88
2019-04-06T03:20:33.783Z,9.88
2019-04-06T03:23:03.337Z,9.85
2019-04-06T03:25:32.956Z,9.81
2019-04-06T03:28:02.514Z,9.79
2019-04-06T03:30:32.085Z,9.72
2019-04-06T03:33:01.557Z,9.66
2019-04-06T03:35:31.165Z,9.67
2019-04-06T03:38:00.604Z,9.65
2019-04-06T03:40:30.186Z,9.60
2019-04-06T03:42:59.658Z,9.59
2019-04-06T03:45:29.388Z,9.59
2019-04-06T03:47:59.257Z,9.54
2019-04-06T03:50:28.876Z,9.59
2019-04-06T03:52:58.425Z,9.53
2019-04-06T03:55:28.095Z,9.47
2019-04-06T03:57:57.602Z,9.45
2019-04-06T04:00:27.151Z,9.40
2019-04-06T04:02:56.699Z,9.33
2019-04-06T04:05:26.121Z,9.25
2019-04-06T04:07:55.574Z,9.32
2019-04-06T04:10:34.296Z,9.26
2019-04-06T04:13:04.397Z,9.26
2019-04-06T04:15:33.932Z,9.24
2019-04-06T04:18:03.803Z,9.17
2019-04-06T04:20:33.464Z,9.14
2019-04-06T04:23:03.116Z,9.15
2019-04-06T04:25:32.522Z,9.15
2019-04-06T04:28:02.523Z,9.18
2019-04-06T04:30:33.959Z,9.17
2019-04-06T04:33:03.218Z,9.15
2019-04-06T04:35:32.917Z,9.11
2019-04-06T04:38:02.580Z,9.02
2019-04-06T04:40:32.144Z,8.96
2019-04-06T04:43:01.616Z,9.02
2019-04-06T04:45:31.145Z,9.02
2019-04-06T04:48:00.710Z,9.08
2019-04-06T04:50:30.214Z,9.03
2019-04-06T04:52:59.748Z,9.02
2019-04-06T04:55:29.170Z,9.02
2019-04-06T04:57:58.702Z,8.97
2019-04-06T05:00:28.152Z,9.05
2019-04-06T05:02:57.598Z,9.02
2019-04-06T05:05:27.060Z,9.01
2019-04-06T05:07:56.478Z,9.09
2019-04-06T05:10:25.940Z,9.16
2019-04-06T05:12:55.357Z,9.19
2019-04-06T05:15:30.797Z,9.25
2019-04-06T05:18:00.211Z,9.32
2019-04-06T05:20:29.776Z,9.36
2019-04-06T05:22:59.190Z,9.47
2019-04-06T05:25:28.682Z,9.54
2019-04-06T05:27:58.056Z,9.58
2019-04-06T05:30:27.598Z,9.62
2019-04-06T05:32:57.099Z,9.65
2019-04-06T05:35:26.544Z,9.70
2019-04-06T05:37:55.964Z,9.74
2019-04-06T05:40:25.429Z,9.85
2019-04-06T05:42:54.942Z,9.86
2019-04-06T05:45:24.382Z,9.90
2019-04-06T05:47:53.796Z,9.91
2019-04-06T05:50:23.253Z,9.93
2019-04-06T05:52:52.780Z,9.91
2019-04-06T05:55:24.397Z,9.92
2019-04-06T05:58:03.141Z,10.02
2019-04-06T06:00:24.516Z,10.08
2019-04-06T06:02:54.016Z,10.16
2019-04-06T06:05:23.874Z,10.26
2019-04-06T06:07:53.428Z,10.30
2019-04-06T06:10:22.850Z,10.31
2019-04-06T06:12:52.270Z,10.37
2019-04-06T06:15:21.768Z,10.47
2019-04-06T06:17:51.161Z,10.52
2019-04-06T06:20:20.605Z,10.62
2019-04-06T06:22:50.131Z,10.75
2019-04-06T06:25:19.581Z,10.81
2019-04-06T06:27:49.004Z,10.85
2019-04-06T06:30:18.663Z,10.94
2019-04-06T06:32:48.267Z,10.94
2019-04-06T06:35:17.729Z,11.01
2019-04-06T06:37:47.258Z,11.07
2019-04-06T06:40:16.759Z,11.09
2019-04-06T06:42:46.168Z,11.18
2019-04-06T06:45:15.835Z,11.20
2019-04-06T06:47:45.406Z,11.34
2019-04-06T06:50:14.801Z,11.36
2019-04-06T06:52:44.236Z,11.42
2019-04-06T06:55:13.693Z,11.54
2019-04-06T06:57:43.119Z,11.61
2019-04-06T07:00:12.778Z,11.68
2019-04-06T07:02:42.302Z,11.72
2019-04-06T07:05:11.753Z,11.81
2019-04-06T07:07:41.298Z,11.89
2019-04-06T07:10:11.047Z,11.96
2019-04-06T07:12:40.458Z,12.12
2019-04-06T07:15:09.883Z,12.19
2019-04-06T07:17:39.333Z,12.25
2019-04-06T07:20:08.753Z,12.33
2019-04-06T07:22:38.231Z,12.42
2019-04-06T07:25:08.260Z,12.48
2019-04-06T07:27:38.035Z,12.58
2019-04-06T07:30:08.114Z,12.70
2019-04-06T07:32:37.565Z,12.81
2019-04-06T07:35:06.989Z,12.97
2019-04-06T07:37:36.601Z,13.10
2019-04-06T07:40:07.218Z,13.18
2019-04-06T07:42:37.215Z,13.27
2019-04-06T07:45:06.985Z,13.48
2019-04-06T07:47:36.429Z,13.53
2019-04-06T07:50:06.805Z,13.60
2019-04-06T07:52:36.384Z,13.70
2019-04-06T07:55:08.141Z,13.83
2019-04-06T07:57:37.553Z,13.94
2019-04-06T08:00:07.565Z,14.08
2019-04-06T08:02:37.210Z,14.19
2019-04-06T08:05:07.305Z,14.33
2019-04-06T08:07:37.227Z,14.45
2019-04-06T08:10:06.720Z,14.60
2019-04-06T08:12:36.522Z,14.71
2019-04-06T08:15:06.731Z,14.86
2019-04-06T08:17:36.454Z,15.03
2019-04-06T08:20:08.562Z,15.13
2019-04-06T08:22:37.987Z,15.15
2019-04-06T08:25:08.082Z,15.32
2019-04-06T08:27:37.702Z,15.47
2019-04-06T08:30:09.346Z,15.69
2019-04-06T08:32:39.365Z,15.87
2019-04-06T08:35:09.205Z,16.06
2019-04-06T08:37:38.892Z,16.31
2019-04-06T08:40:08.363Z,16.41
2019-04-06T08:42:37.818Z,16.50
2019-04-06T08:45:07.310Z,16.76
2019-04-06T08:47:37.198Z,17.02
2019-04-06T08:50:07.595Z,17.22
2019-04-06T08:52:37.046Z,17.32
2019-04-06T08:55:07.198Z,17.58
2019-04-06T08:57:36.879Z,17.89
2019-04-06T09:00:07.934Z,18.08
2019-04-06T09:02:37.909Z,18.20
2019-04-06T09:05:07.790Z,18.47
2019-04-06T09:07:40.465Z,18.67
2019-04-06T09:10:09.410Z,18.80
2019-04-06T09:12:39.069Z,18.99
2019-04-06T09:15:10.004Z,18.94
2019-04-06T09:17:39.670Z,19.12
2019-04-06T09:20:09.878Z,19.16
2019-04-06T09:22:39.573Z,19.36
2019-04-06T09:25:09.261Z,19.58
2019-04-06T09:27:39.232Z,19.62
2019-04-06T09:30:09.207Z,20.17
2019-04-06T09:32:39.121Z,20.86
2019-04-06T09:35:09.166Z,21.18
2019-04-06T09:37:40.123Z,21.41
2019-04-06T09:40:10.425Z,21.74
2019-04-06T09:42:40.080Z,22.14
2019-04-06T09:45:26.848Z,22.37
2019-04-06T09:48:01.328Z,22.74
2019-04-06T09:50:49.361Z,23.40
2019-04-06T09:53:26.396Z,23.55
2019-04-06T09:56:00.655Z,23.97
2019-04-06T09:58:47.049Z,23.98
2019-04-06T10:01:38.911Z,23.75
2019-04-06T10:04:20.958Z,24.12
2019-04-06T10:06:58.172Z,24.44
2019-04-06T10:09:38.382Z,24.74
2019-04-06T10:12:15.662Z,25.62
2019-04-06T10:14:56.016Z,25.62
2019-04-06T10:17:27.289Z,25.92
2019-04-06T10:19:58.727Z,25.48
2019-04-06T10:22:33.070Z,25.75
2019-04-06T10:25:16.457Z,25.45
2019-04-06T10:27:48.564Z,25.37
2019-04-06T10:30:35.872Z,23.99
2019-04-06T10:33:23.033Z,24.45
2019-04-06T10:35:54.334Z,25.00
2019-04-06T10:38:25.826Z,25.75
2019-04-06T10:41:08.966Z,26.34
2019-04-06T10:43:40.202Z,26.32
2019-04-06T10:46:20.367Z,26.51
2019-04-06T10:48:54.287Z,26.58
2019-04-06T10:51:31.634Z,26.90
2019-04-06T10:54:08.998Z,27.18
2019-04-06T10:56:40.297Z,27.20
2019-04-06T10:59:23.388Z,28.04
2019-04-06T11:01:54.701Z,28.14
2019-04-06T11:04:31.823Z,28.26
2019-04-06T11:07:06.011Z,28.25
2019-04-06T11:09:40.930Z,28.97
2019-04-06T11:12:18.056Z,29.43
2019-04-06T11:14:55.071Z,29.34
2019-04-06T11:17:41.266Z,28.90
2019-04-06T11:20:21.326Z,28.63
2019-04-06T11:23:07.912Z,28.47
2019-04-06T11:25:48.134Z,28.53
2019-04-06T11:28:19.444Z,28.76
2019-04-06T11:31:07.616Z,28.68
2019-04-06T11:33:41.749Z,28.84
2019-04-06T11:36:13.015Z,28.67
2019-04-06T11:38:44.313Z,28.34
2019-04-06T11:41:21.599Z,28.49
2019-04-06T11:44:08.841Z,28.67
2019-04-06T11:46:43.363Z,29.22
2019-04-06T11:49:20.414Z,29.71
2019-04-06T11:51:54.344Z,29.61
2019-04-06T11:54:25.641Z,29.68
2019-04-06T11:56:56.910Z,29.47
2019-04-06T11:59:34.292Z,29.74
2019-04-06T12:02:21.803Z,29.61
2019-04-06T12:05:05.551Z,29.43
2019-04-06T12:07:45.480Z,30.02
2019-04-06T12:10:25.583Z,29.85
2019-04-06T12:12:59.566Z,30.35
2019-04-06T12:15:30.844Z,30.58
2019-04-06T12:18:05.071Z,30.16
2019-04-06T12:20:36.383Z,30.18
2019-04-06T12:23:23.010Z,30.04
2019-04-06T12:25:54.298Z,30.02
2019-04-06T12:28:28.726Z,30.51
2019-04-06T12:31:00.077Z,30.53
2019-04-06T12:33:47.795Z,30.46
2019-04-06T12:36:19.054Z,30.28
2019-04-06T12:38:53.262Z,30.56
2019-04-06T12:41:24.852Z,30.39
2019-04-06T12:44:12.294Z,30.24
2019-04-06T12:47:01.947Z,29.92
2019-04-06T12:49:36.094Z,29.74
2019-04-06T12:52:23.723Z,29.53
2019-04-06T12:54:55.027Z,29.43
2019-04-06T12:57:26.339Z,29.50
2019-04-06T13:00:13.874Z,28.72
2019-04-06T13:02:57.558Z,28.69
2019-04-06T13:05:31.563Z,28.55
2019-04-06T13:08:05.831Z,28.49
2019-04-06T13:10:51.935Z,27.65
2019-04-06T13:13:39.146Z,27.65
2019-04-06T13:16:16.822Z,27.05
2019-04-06T13:18:50.823Z,26.22
2019-04-06T13:21:31.163Z,25.53
2019-04-06T13:24:08.368Z,25.20
2019-04-06T13:26:55.550Z,24.72
2019-04-06T13:29:26.850Z,24.72
2019-04-06T13:32:01.060Z,24.60
2019-04-06T13:34:44.322Z,24.28
2019-04-06T13:37:24.763Z,24.17
2019-04-06T13:40:02.257Z,24.32
2019-04-06T13:42:33.668Z,24.37
2019-04-06T13:45:11.621Z,24.63
2019-04-06T13:47:57.971Z,24.62
2019-04-06T13:50:29.602Z,24.94
2019-04-06T13:53:01.644Z,25.57
2019-04-06T13:55:41.960Z,25.48
2019-04-06T13:58:13.207Z,25.35
2019-04-06T14:00:50.825Z,24.91
2019-04-06T14:03:28.153Z,25.07
2019-04-06T14:06:08.352Z,24.81
2019-04-06T14:08:39.767Z,24.72
2019-04-06T14:11:13.751Z,24.23
2019-04-06T14:13:45.021Z,23.98
2019-04-06T14:16:24.968Z,23.61
2019-04-06T14:19:11.204Z,23.59
2019-04-06T14:21:48.646Z,23.43
2019-04-06T14:24:19.874Z,23.43
2019-04-06T14:27:07.524Z,23.20
2019-04-06T14:29:47.922Z,23.16
2019-04-06T14:32:19.325Z,23.24
2019-04-06T14:34:50.625Z,23.12
2019-04-06T14:37:21.929Z,22.78
2019-04-06T14:40:09.357Z,22.76
2019-04-06T14:42:43.067Z,22.83
2019-04-06T14:45:14.615Z,22.90
2019-04-06T14:47:48.873Z,22.87
2019-04-06T14:50:28.926Z,23.03
2019-04-06T14:53:08.602Z,22.85
2019-04-06T14:55:42.764Z,22.75
2019-04-06T14:58:25.943Z,22.90
2019-04-06T15:01:00.111Z,23.18
2019-04-06T15:03:47.130Z,23.75
2019-04-06T15:06:21.660Z,23.69
2019-04-06T15:09:07.709Z,24.27
2019-04-06T15:11:38.976Z,24.16
2019-04-06T15:14:22.322Z,24.45
2019-04-06T15:16:59.343Z,24.34
2019-04-06T15:19:30.644Z,23.82
2019-04-06T15:22:18.288Z,23.18
2019-04-06T15:24:52.454Z,22.98
2019-04-06T15:27:29.437Z,22.72
2019-04-06T15:30:03.423Z,22.30
2019-04-06T15:32:51.021Z,22.19
2019-04-06T15:35:22.304Z,22.08
2019-04-06T15:37:59.631Z,22.17
2019-04-06T15:40:36.655Z,22.13
2019-04-06T15:43:10.410Z,21.99
2019-04-06T15:45:50.502Z,21.76
2019-04-06T15:48:36.112Z,21.61
2019-04-06T15:51:00.759Z,21.55
2019-04-06T15:53:34.708Z,21.53
2019-04-06T15:56:22.240Z,21.42
2019-04-06T15:58:53.546Z,21.24
2019-04-06T16:01:24.813Z,21.08
2019-04-06T16:04:12.270Z,20.93
2019-04-06T16:06:59.220Z,21.00
2019-04-06T16:09:41.613Z,20.89
2019-04-06T16:12:30.530Z,20.76
2019-04-06T16:15:04.529Z,20.67
2019-04-06T16:17:38.246Z,20.62
2019-04-06T16:20:09.763Z,20.39
2019-04-06T16:22:56.900Z,20.30
2019-04-06T16:25:31.140Z,20.14
2019-04-06T16:28:02.416Z,20.03
2019-04-06T16:30:33.720Z,19.85
2019-04-06T16:33:19.787Z,19.81
2019-04-06T16:35:53.816Z,19.70
2019-04-06T16:38:31.015Z,19.61
2019-04-06T16:41:08.648Z,19.61
2019-04-06T16:43:54.973Z,19.52
2019-04-06T16:46:42.583Z,19.44
2019-04-06T16:49:22.895Z,19.33
2019-04-06T16:52:03.380Z,19.10
2019-04-06T16:54:43.611Z,18.98
2019-04-06T16:57:20.802Z,18.87
2019-04-06T16:59:52.338Z,18.76
2019-04-06T17:02:39.724Z,18.67
2019-04-06T17:05:17.060Z,18.55
2019-04-06T17:07:51.472Z,18.50
2019-04-06T17:10:22.682Z,18.38
2019-04-06T17:12:56.414Z,18.30
2019-04-06T17:15:30.682Z,18.21
2019-04-06T17:18:19.818Z,18.10
2019-04-06T17:20:54.187Z,17.96
2019-04-06T17:23:34.185Z,17.86
2019-04-06T17:26:11.539Z,17.75
2019-04-06T17:28:49.153Z,17.68
2019-04-06T17:31:23.411Z,17.55
2019-04-06T17:34:10.872Z,17.50
2019-04-06T17:37:00.584Z,17.43
2019-04-06T17:39:34.551Z,17.31
2019-04-06T17:42:12.126Z,17.26
2019-04-06T17:44:49.200Z,17.18
2019-04-06T17:47:32.854Z,17.05
2019-04-06T17:50:09.815Z,17.01
2019-04-06T17:52:53.354Z,16.98
2019-04-06T17:55:24.757Z,16.89
2019-04-06T17:58:12.032Z,16.85
2019-04-06T18:00:50.337Z,16.69
2019-04-06T18:03:24.357Z,16.64
2019-04-06T18:05:58.089Z,16.56
2019-04-06T18:08:44.115Z,16.49
2019-04-06T18:11:27.145Z,16.46
2019-04-06T18:13:59.771Z,16.38
2019-04-06T18:16:31.270Z,16.30
2019-04-06T18:19:00.996Z,16.21
2019-04-06T18:21:31.136Z,16.12
2019-04-06T18:24:00.971Z,16.08
2019-04-06T18:26:30.599Z,16.05
2019-04-06T18:29:00.640Z,16.00
2019-04-06T18:31:37.703Z,15.94
2019-04-06T18:34:08.113Z,15.89
2019-04-06T18:36:55.071Z,15.83
2019-04-06T18:39:26.518Z,15.72
2019-04-06T18:41:56.403Z,15.70
2019-04-06T18:44:26.272Z,15.63
2019-04-06T18:46:56.616Z,15.61
2019-04-06T18:49:26.352Z,15.57
2019-04-06T18:51:56.082Z,15.53
2019-04-06T18:54:25.730Z,15.45
2019-04-06T18:56:55.786Z,15.40
2019-04-06T18:59:25.411Z,15.32
2019-04-06T19:01:55.148Z,15.32
2019-04-06T19:04:24.785Z,15.33
2019-04-06T19:06:54.554Z,15.24
2019-04-06T19:09:25.510Z,15.19
2019-04-06T19:11:57.057Z,15.11
2019-04-06T19:14:26.972Z,15.03
2019-04-06T19:16:57.044Z,14.97
2019-04-06T19:19:26.720Z,14.88
2019-04-06T19:21:57.152Z,14.84
2019-04-06T19:24:27.300Z,14.82
2019-04-06T19:26:56.935Z,14.76
2019-04-06T19:29:26.710Z,14.74
2019-04-06T19:31:58.101Z,14.67
2019-04-06T19:34:28.164Z,14.56
2019-04-06T19:36:57.958Z,14.56
2019-04-06T19:39:27.591Z,14.55
2019-04-06T19:41:57.420Z,14.46
2019-04-06T19:44:27.246Z,14.41
2019-04-06T19:46:56.922Z,14.36
2019-04-06T19:49:26.753Z,14.31
2019-04-06T19:51:57.084Z,14.26
2019-04-06T19:54:26.881Z,14.23
2019-04-06T19:56:56.965Z,14.16
2019-04-06T19:59:26.690Z,14.11
2019-04-06T20:01:56.299Z,14.06
2019-04-06T20:04:26.103Z,14.00
2019-04-06T20:06:55.883Z,13.92
2019-04-06T20:09:25.527Z,13.95
2019-04-06T20:12:04.290Z,13.92
2019-04-06T20:14:26.596Z,13.84
2019-04-06T20:16:56.465Z,13.84
2019-04-06T20:19:26.385Z,13.78
2019-04-06T20:21:56.018Z,13.76
2019-04-06T20:24:25.776Z,13.72
2019-04-06T20:26:56.136Z,13.64
2019-04-06T20:29:25.718Z,13.59
2019-04-06T20:31:55.392Z,13.57
2019-04-06T20:34:25.479Z,13.57
2019-04-06T20:36:55.274Z,13.54
2019-04-06T20:39:24.964Z,13.49
2019-04-06T20:41:54.714Z,13.44
2019-04-06T20:44:24.392Z,13.43
2019-04-06T20:46:54.542Z,13.37
2019-04-06T20:49:24.723Z,13.30
2019-04-06T20:51:54.375Z,13.23
2019-04-06T20:54:24.565Z,13.18
2019-04-06T20:56:57.990Z,13.12
2019-04-06T20:59:25.690Z,13.09
2019-04-06T21:01:55.288Z,13.08
2019-04-06T21:04:24.936Z,13.05
2019-04-06T21:06:54.965Z,13.07
2019-04-06T21:09:24.619Z,12.99
2019-04-06T21:11:54.655Z,12.94
2019-04-06T21:14:24.309Z,12.81
2019-04-06T21:16:54.607Z,12.79
2019-04-06T21:19:24.830Z,12.69
2019-04-06T21:21:54.668Z,12.61
2019-04-06T21:24:24.245Z,12.61
2019-04-06T21:26:54.387Z,12.57
2019-04-06T21:29:24.350Z,12.48
2019-04-06T21:31:53.982Z,12.48
2019-04-06T21:34:23.753Z,12.36
2019-04-06T21:36:53.717Z,12.35
2019-04-06T21:39:23.370Z,12.27
2019-04-06T21:41:53.121Z,12.25
2019-04-06T21:44:23.014Z,12.20
2019-04-06T21:46:52.685Z,12.13
2019-04-06T21:49:22.318Z,12.09
2019-04-06T21:51:51.974Z,12.07
2019-04-06T21:54:21.603Z,12.03
2019-04-06T21:56:51.803Z,12.00
2019-04-06T21:59:21.478Z,11.92
2019-04-06T22:01:51.407Z,11.95
2019-04-06T22:04:25.335Z,11.94
2019-04-06T22:06:52.802Z,11.91
2019-04-06T22:09:22.398Z,11.95
2019-04-06T22:11:52.454Z,11.95
2019-04-06T22:14:22.829Z,11.86
2019-04-06T22:16:52.529Z,11.82
2019-04-06T22:19:22.520Z,11.82
2019-04-06T22:21:52.203Z,11.77
2019-04-06T22:24:21.838Z,11.71
2019-04-06T22:26:51.946Z,11.65
2019-04-06T22:29:22.213Z,11.65
2019-04-06T22:31:51.866Z,11.53
2019-04-06T22:34:21.790Z,11.52
2019-04-06T22:36:51.584Z,11.53
2019-04-06T22:39:21.507Z,11.51
2019-04-06T22:41:51.209Z,11.46
2019-04-06T22:44:21.049Z,11.42
2019-04-06T22:46:51.414Z,11.41
2019-04-06T22:49:21.468Z,11.37
2019-04-06T22:51:51.599Z,11.28
2019-04-06T22:54:21.399Z,11.29
2019-04-06T22:56:51.096Z,11.24
2019-04-06T22:59:20.732Z,11.19
2019-04-06T23:01:50.503Z,11.11
2019-04-06T23:04:24.446Z,11.18
2019-04-06T23:06:58.156Z,11.11
2019-04-06T23:09:27.959Z,11.10
2019-04-06T23:11:57.644Z,11.09
2019-04-06T23:14:27.358Z,11.06
2019-04-06T23:16:56.948Z,10.97
2019-04-06T23:19:27.105Z,10.86
2019-04-06T23:21:56.727Z,10.89
2019-04-06T23:24:26.394Z,10.89
2019-04-06T23:26:56.754Z,10.83
2019-04-06T23:29:26.893Z,10.80
2019-04-06T23:31:56.574Z,10.81
2019-04-06T23:34:26.347Z,10.81
2019-04-06T23:36:56.834Z,10.81
2019-04-06T23:39:26.946Z,10.78
2019-04-06T23:41:56.612Z,10.79
2019-04-06T23:44:26.270Z,10.80
2019-04-06T23:46:56.446Z,10.75
2019-04-06T23:49:27.586Z,10.69
2019-04-06T23:51:57.757Z,10.69
2019-04-06T23:54:27.403Z,10.67
2019-04-06T23:56:57.035Z,10.59
2019-04-06T23:59:27.145Z,10.57
